createdAt,value
2023-05-05T00:04:20.936Z,0.00
2023-05-05T00:09:20.842Z,0.00
2023-05-05T00:14:20.811Z,0.00
2023-05-05T00:19:20.677Z,0.00
2023-05-05T00:24:20.640Z,0.00
2023-05-05T00:29:20.501Z,0.00
2023-05-05T00:34:21.190Z,0.00
2023-05-05T00:39:20.481Z,0.00
2023-05-05T00:44:20.610Z,0.00
2023-05-05T00:49:20.480Z,0.00
2023-05-05T00:54:23.524Z,0.00
2023-05-05T00:59:20.285Z,0.00
2023-05-05T01:04:20.311Z,0.00
2023-05-05T01:09:19.999Z,0.00
2023-05-05T01:14:20.009Z,0.00
2023-05-05T01:19:19.835Z,0.00
2023-05-05T01:24:19.880Z,0.00
2023-05-05T01:29:19.739Z,0.00
2023-05-05T01:34:19.764Z,0.00
2023-05-05T01:39:19.808Z,0.00
2023-05-05T01:44:20.096Z,0.00
2023-05-05T01:49:19.454Z,0.00
2023-05-05T01:54:22.421Z,0.00
2023-05-05T01:59:19.327Z,0.00
2023-05-05T02:04:19.285Z,0.00
2023-05-05T02:09:19.189Z,0.00
2023-05-05T02:14:19.184Z,0.00
2023-05-05T02:19:19.255Z,0.00
2023-05-05T02:24:19.070Z,0.00
2023-05-05T02:29:18.928Z,0.00
2023-05-05T02:34:18.895Z,0.00
2023-05-05T02:39:18.966Z,0.00
2023-05-05T02:44:18.766Z,0.00
2023-05-05T02:49:18.672Z,0.00
2023-05-05T02:54:22.086Z,0.00
2023-05-05T02:59:18.530Z,0.00
2023-05-05T03:04:18.538Z,4.00
2023-05-05T03:09:18.458Z,4.00
2023-05-05T03:14:18.413Z,8.00
2023-05-05T03:19:18.288Z,16.00
2023-05-05T03:24:18.343Z,28.00
2023-05-05T03:29:18.279Z,52.00
2023-05-05T03:34:18.128Z,92.00
2023-05-05T03:39:18.179Z,148.00
2023-05-05T03:44:18.001Z,216.00
2023-05-05T03:49:17.877Z,304.00
2023-05-05T03:54:20.910Z,444.00
2023-05-05T03:59:17.859Z,664.00
2023-05-05T04:04:17.785Z,796.00
2023-05-05T04:09:17.637Z,1052.00
2023-05-05T04:14:18.088Z,1368.00
2023-05-05T04:19:17.600Z,1868.00
2023-05-05T04:24:17.472Z,1964.00
2023-05-05T04:29:17.539Z,2724.00
2023-05-05T04:34:17.389Z,4136.00
2023-05-05T04:39:17.265Z,3860.00
2023-05-05T04:44:17.199Z,5164.00
2023-05-05T04:49:17.113Z,7952.00
2023-05-05T04:54:20.474Z,9156.00
2023-05-05T04:59:16.952Z,11692.00
2023-05-05T05:04:17.065Z,13088.00
2023-05-05T05:09:16.892Z,14848.00
2023-05-05T05:14:16.840Z,14976.00
2023-05-05T05:19:16.805Z,15936.00
2023-05-05T05:24:17.639Z,16928.00
2023-05-05T05:29:16.806Z,17504.00
2023-05-05T05:34:16.530Z,18080.00
2023-05-05T05:39:16.512Z,17504.00
2023-05-05T05:44:16.598Z,16736.00
2023-05-05T05:49:16.533Z,6736.00
2023-05-05T05:54:19.256Z,22944.00
2023-05-05T05:59:16.203Z,25376.00
2023-05-05T06:04:16.415Z,17152.00
2023-05-05T06:09:16.083Z,31424.00
2023-05-05T06:14:18.013Z,27712.00
2023-05-05T06:19:16.065Z,31904.00
2023-05-05T06:24:16.219Z,29600.00
2023-05-05T06:29:15.808Z,30368.00
2023-05-05T06:34:16.515Z,30368.00
2023-05-05T06:39:16.241Z,34496.00
2023-05-05T06:44:15.792Z,38912.00
2023-05-05T06:49:15.538Z,10776.00
2023-05-05T06:54:18.624Z,38528.00
2023-05-05T06:59:15.545Z,39456.00
2023-05-05T07:04:15.570Z,35712.00
2023-05-05T07:09:16.996Z,43840.00
2023-05-05T07:14:15.569Z,42656.00
2023-05-05T07:19:15.262Z,45472.00
2023-05-05T07:24:15.391Z,49728.00
2023-05-05T07:29:15.093Z,36352.00
2023-05-05T07:34:15.263Z,50240.00
2023-05-05T07:39:14.992Z,48192.00
2023-05-05T07:44:14.945Z,35904.00
2023-05-05T07:49:14.877Z,46656.00
2023-05-05T07:54:18.008Z,48096.00
2023-05-05T07:59:14.745Z,49984.00
2023-05-05T08:04:14.912Z,43648.00
2023-05-05T08:09:14.797Z,41248.00
2023-05-05T08:14:14.900Z,49088.00
2023-05-05T08:19:27.616Z,14748.00
2023-05-05T08:24:15.658Z,11032.00
2023-05-05T08:29:14.475Z,10244.00
2023-05-05T08:34:14.453Z,10228.00
2023-05-05T08:39:14.319Z,10624.00
2023-05-05T08:44:14.406Z,11740.00
2023-05-05T08:49:14.108Z,12672.00
2023-05-05T08:54:17.232Z,12040.00
2023-05-05T08:59:14.121Z,11376.00
2023-05-05T09:04:13.917Z,11104.00
2023-05-05T09:09:13.923Z,11104.00
2023-05-05T09:14:13.899Z,11216.00
2023-05-05T09:19:13.961Z,11192.00
2023-05-05T09:24:13.586Z,11024.00
2023-05-05T09:29:13.622Z,15168.00
2023-05-05T09:34:13.600Z,18016.00
2023-05-05T09:39:13.365Z,17376.00
2023-05-05T09:44:13.544Z,16576.00
2023-05-05T09:49:13.246Z,15372.00
2023-05-05T09:54:16.269Z,15904.00
2023-05-05T09:59:13.121Z,14440.00
2023-05-05T10:04:13.120Z,15028.00
2023-05-05T10:09:13.005Z,13848.00
2023-05-05T10:14:12.954Z,12928.00
2023-05-05T10:19:12.929Z,13488.00
2023-05-05T10:24:12.821Z,13488.00
2023-05-05T10:29:12.782Z,12932.00
2023-05-05T10:34:12.831Z,13500.00
2023-05-05T10:39:12.719Z,13556.00
2023-05-05T10:44:12.714Z,13288.00
2023-05-05T10:49:13.456Z,13780.00
2023-05-05T10:54:15.517Z,14624.00
2023-05-05T10:59:12.348Z,15488.00
2023-05-05T11:04:12.333Z,16800.00
2023-05-05T11:09:12.290Z,18272.00
2023-05-05T11:14:12.871Z,18624.00
2023-05-05T11:19:12.165Z,18848.00
2023-05-05T11:24:12.086Z,19392.00
2023-05-05T11:29:11.957Z,20288.00
2023-05-05T11:34:11.938Z,18912.00
2023-05-05T11:39:11.849Z,19488.00
2023-05-05T11:44:11.886Z,19072.00
2023-05-05T11:49:11.722Z,18688.00
2023-05-05T11:54:14.745Z,17056.00
2023-05-05T11:59:11.607Z,15040.00
2023-05-05T12:04:11.831Z,16256.00
2023-05-05T12:09:11.469Z,14436.00
2023-05-05T12:14:11.490Z,14704.00
2023-05-05T12:19:11.287Z,11992.00
2023-05-05T12:24:11.518Z,13044.00
2023-05-05T12:29:11.180Z,13052.00
2023-05-05T12:34:11.215Z,13772.00
2023-05-05T12:39:11.045Z,14316.00
2023-05-05T12:44:11.118Z,13708.00
2023-05-05T12:49:11.143Z,13288.00
2023-05-05T12:54:13.986Z,11528.00
2023-05-05T12:59:10.792Z,11228.00
2023-05-05T13:04:10.962Z,12384.00
2023-05-05T13:09:10.687Z,15360.00
2023-05-05T13:14:10.771Z,14140.00
2023-05-05T13:19:10.659Z,11520.00
2023-05-05T13:24:22.900Z,11960.00
2023-05-05T13:29:11.586Z,9232.00
2023-05-05T13:34:10.493Z,8672.00
2023-05-05T13:39:10.309Z,8476.00
2023-05-05T13:44:10.196Z,6248.00
2023-05-05T13:49:10.237Z,4080.00
2023-05-05T13:54:13.121Z,4520.00
2023-05-05T13:59:10.136Z,5788.00
2023-05-05T14:04:10.139Z,6240.00
2023-05-05T14:09:09.902Z,10328.00
2023-05-05T14:14:10.022Z,11548.00
2023-05-05T14:19:10.003Z,10996.00
2023-05-05T14:24:09.708Z,10076.00
2023-05-05T14:29:09.758Z,9156.00
2023-05-05T14:34:09.632Z,10188.00
2023-05-05T14:39:09.529Z,11540.00
2023-05-05T14:44:09.537Z,12072.00
2023-05-05T14:49:09.465Z,12120.00
2023-05-05T14:54:26.994Z,12164.00
2023-05-05T14:59:10.436Z,11284.00
2023-05-05T15:04:09.240Z,10388.00
2023-05-05T15:09:09.093Z,10380.00
2023-05-05T15:14:09.227Z,10024.00
2023-05-05T15:19:09.038Z,11064.00
2023-05-05T15:24:09.000Z,11104.00
2023-05-05T15:29:08.904Z,10776.00
2023-05-05T15:34:08.866Z,10412.00
2023-05-05T15:39:08.705Z,10032.00
2023-05-05T15:44:08.795Z,9772.00
2023-05-05T15:49:08.733Z,8336.00
2023-05-05T15:54:11.574Z,8188.00
2023-05-05T15:59:08.490Z,7752.00
2023-05-05T16:04:08.501Z,7944.00
2023-05-05T16:09:08.331Z,8108.00
2023-05-05T16:14:08.431Z,7060.00
2023-05-05T16:19:08.203Z,5688.00
2023-05-05T16:24:08.245Z,4508.00
2023-05-05T16:29:08.075Z,3972.00
2023-05-05T16:34:08.143Z,4532.00
2023-05-05T16:39:08.165Z,4844.00
2023-05-05T16:44:07.889Z,3672.00
2023-05-05T16:49:07.836Z,4392.00
2023-05-05T16:54:10.900Z,5312.00
2023-05-05T16:59:07.676Z,5524.00
2023-05-05T17:04:07.752Z,4912.00
2023-05-05T17:09:07.550Z,4464.00
2023-05-05T17:14:07.499Z,4144.00
2023-05-05T17:19:07.470Z,3976.00
2023-05-05T17:24:07.501Z,3896.00
2023-05-05T17:29:07.316Z,3560.00
2023-05-05T17:34:07.281Z,3184.00
2023-05-05T17:39:07.182Z,2384.00
2023-05-05T17:44:07.272Z,1444.00
2023-05-05T17:49:06.995Z,1012.00
2023-05-05T17:54:10.090Z,852.00
2023-05-05T17:59:07.099Z,912.00
2023-05-05T18:04:06.996Z,984.00
2023-05-05T18:09:07.277Z,836.00
2023-05-05T18:14:06.784Z,612.00
2023-05-05T18:19:06.714Z,472.00
2023-05-05T18:24:18.690Z,276.00
2023-05-05T18:29:07.626Z,140.00
2023-05-05T18:34:06.405Z,92.00
2023-05-05T18:39:06.414Z,40.00
2023-05-05T18:44:06.328Z,20.00
2023-05-05T18:49:06.971Z,8.00
2023-05-05T18:54:09.307Z,4.00
2023-05-05T18:59:06.067Z,0.00
2023-05-05T19:04:15.629Z,0.00
2023-05-05T19:09:07.260Z,0.00
2023-05-05T19:14:05.911Z,0.00
2023-05-05T19:19:05.843Z,0.00
2023-05-05T19:24:05.925Z,0.00
2023-05-05T19:29:05.769Z,0.00
2023-05-05T19:34:05.626Z,0.00
2023-05-05T19:39:05.708Z,0.00
2023-05-05T19:44:05.602Z,0.00
2023-05-05T19:49:05.552Z,0.00
2023-05-05T19:54:08.533Z,0.00
2023-05-05T19:59:05.345Z,0.00
2023-05-05T20:04:05.321Z,0.00
2023-05-05T20:09:05.379Z,0.00
2023-05-05T20:14:05.243Z,0.00
2023-05-05T20:19:05.175Z,0.00
2023-05-05T20:24:05.131Z,0.00
2023-05-05T20:29:04.931Z,0.00
2023-05-05T20:34:04.914Z,0.00
2023-05-05T20:39:04.794Z,0.00
2023-05-05T20:44:04.782Z,0.00
2023-05-05T20:49:04.819Z,0.00
2023-05-05T20:54:07.672Z,0.00
2023-05-05T20:59:04.502Z,0.00
2023-05-05T21:04:05.079Z,0.00
2023-05-05T21:09:04.358Z,0.00
2023-05-05T21:14:04.572Z,0.00
2023-05-05T21:19:04.375Z,0.00
2023-05-05T21:24:05.575Z,0.00
2023-05-05T21:29:04.108Z,0.00
2023-05-05T21:34:04.064Z,0.00
2023-05-05T21:39:04.056Z,0.00
2023-05-05T21:44:03.970Z,0.00
2023-05-05T21:49:03.868Z,0.00
2023-05-05T21:54:06.979Z,0.00
2023-05-05T21:59:03.777Z,0.00
2023-05-05T22:04:03.932Z,0.00
2023-05-05T22:09:03.578Z,0.00
2023-05-05T22:14:03.563Z,0.00
2023-05-05T22:19:03.443Z,0.00
2023-05-05T22:24:03.552Z,0.00
2023-05-05T22:29:03.419Z,0.00
2023-05-05T22:34:03.293Z,0.00
2023-05-05T22:39:03.710Z,0.00
2023-05-05T22:44:03.293Z,0.00
2023-05-05T22:49:03.135Z,0.00
2023-05-05T22:54:06.063Z,0.00
2023-05-05T22:59:03.040Z,0.00
2023-05-05T23:04:02.924Z,0.00
2023-05-05T23:09:02.859Z,0.00
2023-05-05T23:14:02.786Z,0.00
2023-05-05T23:19:02.723Z,0.00
2023-05-05T23:24:02.644Z,0.00
2023-05-05T23:29:02.538Z,0.00
2023-05-05T23:34:03.200Z,0.00
2023-05-05T23:39:02.386Z,0.00
2023-05-05T23:44:02.354Z,0.00
2023-05-05T23:49:02.349Z,0.00
2023-05-05T23:54:05.233Z,0.00
2023-05-05T23:59:02.219Z,0.00
